sensor_id;sensor_type;location;lat;lon;timestamp;temperature;humidity
65826;DHT22;52586;-43.152;172.732;2022-10-16T00:00:52;18.80;52.30
65826;DHT22;52586;-43.152;172.732;2022-10-16T00:03:25;18.80;52.20
65826;DHT22;52586;-43.152;172.732;2022-10-16T00:06:00;18.80;52.10
65826;DHT22;52586;-43.152;172.732;2022-10-16T00:08:31;18.90;52.20
65826;DHT22;52586;-43.152;172.732;2022-10-16T00:11:03;18.90;52.10
65826;DHT22;52586;-43.152;172.732;2022-10-16T00:13:36;18.90;52.10
65826;DHT22;52586;-43.152;172.732;2022-10-16T00:16:09;19.00;52.20
65826;DHT22;52586;-43.152;172.732;2022-10-16T00:18:42;19.00;52.30
65826;DHT22;52586;-43.152;172.732;2022-10-16T00:21:14;19.10;52.40
65826;DHT22;52586;-43.152;172.732;2022-10-16T00:23:44;19.10;52.30
65826;DHT22;52586;-43.152;172.732;2022-10-16T00:26:16;19.10;52.30
65826;DHT22;52586;-43.152;172.732;2022-10-16T00:28:47;19.10;52.30
65826;DHT22;52586;-43.152;172.732;2022-10-16T00:31:19;19.10;52.30
65826;DHT22;52586;-43.152;172.732;2022-10-16T00:33:52;19.20;52.40
65826;DHT22;52586;-43.152;172.732;2022-10-16T00:36:24;19.20;52.40
65826;DHT22;52586;-43.152;172.732;2022-10-16T00:38:56;19.20;52.30
65826;DHT22;52586;-43.152;172.732;2022-10-16T00:41:28;19.30;52.30
65826;DHT22;52586;-43.152;172.732;2022-10-16T00:44:01;19.30;52.20
65826;DHT22;52586;-43.152;172.732;2022-10-16T00:46:37;19.30;52.20
65826;DHT22;52586;-43.152;172.732;2022-10-16T00:49:11;19.40;52.30
65826;DHT22;52586;-43.152;172.732;2022-10-16T00:51:44;19.40;52.30
65826;DHT22;52586;-43.152;172.732;2022-10-16T00:54:17;19.40;52.30
65826;DHT22;52586;-43.152;172.732;2022-10-16T00:56:48;19.50;52.30
65826;DHT22;52586;-43.152;172.732;2022-10-16T00:59:20;19.50;52.30
65826;DHT22;52586;-43.152;172.732;2022-10-16T01:01:54;19.50;52.30
65826;DHT22;52586;-43.152;172.732;2022-10-16T01:04:28;19.50;52.30
65826;DHT22;52586;-43.152;172.732;2022-10-16T01:07:09;19.60;52.40
65826;DHT22;52586;-43.152;172.732;2022-10-16T01:09:49;19.60;52.50
65826;DHT22;52586;-43.152;172.732;2022-10-16T01:12:26;19.60;52.40
65826;DHT22;52586;-43.152;172.732;2022-10-16T01:15:08;19.70;52.30
65826;DHT22;52586;-43.152;172.732;2022-10-16T01:17:44;19.70;52.30
65826;DHT22;52586;-43.152;172.732;2022-10-16T01:20:24;19.70;52.20
65826;DHT22;52586;-43.152;172.732;2022-10-16T01:23:20;19.80;52.30
65826;DHT22;52586;-43.152;172.732;2022-10-16T01:26:02;19.80;52.30
65826;DHT22;52586;-43.152;172.732;2022-10-16T01:28:44;19.80;52.50
65826;DHT22;52586;-43.152;172.732;2022-10-16T01:31:19;19.90;53.30
65826;DHT22;52586;-43.152;172.732;2022-10-16T01:33:57;19.90;53.30
65826;DHT22;52586;-43.152;172.732;2022-10-16T01:36:34;19.90;53.20
65826;DHT22;52586;-43.152;172.732;2022-10-16T01:39:08;20.00;53.30
65826;DHT22;52586;-43.152;172.732;2022-10-16T01:41:43;20.00;53.30
65826;DHT22;52586;-43.152;172.732;2022-10-16T01:44:19;20.10;53.30
65826;DHT22;52586;-43.152;172.732;2022-10-16T01:46:53;20.10;53.20
65826;DHT22;52586;-43.152;172.732;2022-10-16T01:49:26;20.20;53.20
65826;DHT22;52586;-43.152;172.732;2022-10-16T01:52:00;20.20;53.20
65826;DHT22;52586;-43.152;172.732;2022-10-16T01:54:33;20.20;53.10
65826;DHT22;52586;-43.152;172.732;2022-10-16T01:57:06;20.30;53.10
65826;DHT22;52586;-43.152;172.732;2022-10-16T01:59:41;20.30;53.00
65826;DHT22;52586;-43.152;172.732;2022-10-16T02:02:14;20.30;52.90
65826;DHT22;52586;-43.152;172.732;2022-10-16T02:04:47;20.30;52.90
65826;DHT22;52586;-43.152;172.732;2022-10-16T02:07:19;20.40;53.00
65826;DHT22;52586;-43.152;172.732;2022-10-16T02:09:50;20.40;52.80
65826;DHT22;52586;-43.152;172.732;2022-10-16T02:12:26;20.40;52.80
65826;DHT22;52586;-43.152;172.732;2022-10-16T02:14:59;20.50;52.80
65826;DHT22;52586;-43.152;172.732;2022-10-16T02:17:30;20.50;52.70
65826;DHT22;52586;-43.152;172.732;2022-10-16T02:20:01;20.50;52.50
65826;DHT22;52586;-43.152;172.732;2022-10-16T02:22:34;20.60;52.40
65826;DHT22;52586;-43.152;172.732;2022-10-16T02:25:09;20.60;52.30
65826;DHT22;52586;-43.152;172.732;2022-10-16T02:27:43;20.70;52.20
65826;DHT22;52586;-43.152;172.732;2022-10-16T02:30:21;20.70;52.20
65826;DHT22;52586;-43.152;172.732;2022-10-16T02:32:54;20.70;52.20
65826;DHT22;52586;-43.152;172.732;2022-10-16T02:35:26;20.70;52.20
65826;DHT22;52586;-43.152;172.732;2022-10-16T02:37:58;20.80;52.80
65826;DHT22;52586;-43.152;172.732;2022-10-16T02:40:29;20.80;52.20
65826;DHT22;52586;-43.152;172.732;2022-10-16T02:43:00;20.80;52.10
65826;DHT22;52586;-43.152;172.732;2022-10-16T02:45:35;20.80;52.10
65826;DHT22;52586;-43.152;172.732;2022-10-16T02:48:06;20.90;52.00
65826;DHT22;52586;-43.152;172.732;2022-10-16T02:50:37;20.90;52.00
65826;DHT22;52586;-43.152;172.732;2022-10-16T02:53:08;20.90;52.00
65826;DHT22;52586;-43.152;172.732;2022-10-16T02:55:38;20.90;51.90
65826;DHT22;52586;-43.152;172.732;2022-10-16T02:58:09;20.90;51.80
65826;DHT22;52586;-43.152;172.732;2022-10-16T03:00:42;21.00;51.70
65826;DHT22;52586;-43.152;172.732;2022-10-16T03:03:13;21.00;51.70
65826;DHT22;52586;-43.152;172.732;2022-10-16T03:05:44;21.00;51.50
65826;DHT22;52586;-43.152;172.732;2022-10-16T03:08:15;21.00;51.40
65826;DHT22;52586;-43.152;172.732;2022-10-16T03:10:51;21.00;51.40
65826;DHT22;52586;-43.152;172.732;2022-10-16T03:13:22;21.00;51.30
65826;DHT22;52586;-43.152;172.732;2022-10-16T03:15:54;21.00;51.20
65826;DHT22;52586;-43.152;172.732;2022-10-16T03:18:25;21.00;51.10
65826;DHT22;52586;-43.152;172.732;2022-10-16T03:20:56;21.00;51.10
65826;DHT22;52586;-43.152;172.732;2022-10-16T03:23:27;21.10;51.20
65826;DHT22;52586;-43.152;172.732;2022-10-16T03:25:58;21.10;51.30
65826;DHT22;52586;-43.152;172.732;2022-10-16T03:28:29;21.10;51.20
65826;DHT22;52586;-43.152;172.732;2022-10-16T03:31:02;21.10;51.20
65826;DHT22;52586;-43.152;172.732;2022-10-16T03:33:33;21.20;51.20
65826;DHT22;52586;-43.152;172.732;2022-10-16T03:36:04;21.20;51.10
65826;DHT22;52586;-43.152;172.732;2022-10-16T03:38:34;21.20;51.20
65826;DHT22;52586;-43.152;172.732;2022-10-16T03:41:05;21.30;51.10
65826;DHT22;52586;-43.152;172.732;2022-10-16T03:43:36;21.30;51.00
65826;DHT22;52586;-43.152;172.732;2022-10-16T03:46:09;21.30;50.90
65826;DHT22;52586;-43.152;172.732;2022-10-16T03:48:40;21.30;50.70
65826;DHT22;52586;-43.152;172.732;2022-10-16T03:51:10;21.40;50.80
65826;DHT22;52586;-43.152;172.732;2022-10-16T03:53:41;21.30;50.70
65826;DHT22;52586;-43.152;172.732;2022-10-16T03:56:12;21.40;50.70
65826;DHT22;52586;-43.152;172.732;2022-10-16T03:58:43;21.40;50.70
65826;DHT22;52586;-43.152;172.732;2022-10-16T04:01:15;21.40;50.70
65826;DHT22;52586;-43.152;172.732;2022-10-16T04:03:46;21.40;50.70
65826;DHT22;52586;-43.152;172.732;2022-10-16T04:06:17;21.40;50.60
65826;DHT22;52586;-43.152;172.732;2022-10-16T04:08:47;21.40;50.50
65826;DHT22;52586;-43.152;172.732;2022-10-16T04:11:18;21.40;50.40
65826;DHT22;52586;-43.152;172.732;2022-10-16T04:13:49;21.40;50.30
65826;DHT22;52586;-43.152;172.732;2022-10-16T04:16:21;21.40;50.20
65826;DHT22;52586;-43.152;172.732;2022-10-16T04:18:52;21.40;50.20
65826;DHT22;52586;-43.152;172.732;2022-10-16T04:21:23;21.40;50.10
65826;DHT22;52586;-43.152;172.732;2022-10-16T04:23:54;21.40;50.20
65826;DHT22;52586;-43.152;172.732;2022-10-16T04:26:24;21.40;50.20
65826;DHT22;52586;-43.152;172.732;2022-10-16T04:28:55;21.40;50.20
65826;DHT22;52586;-43.152;172.732;2022-10-16T04:31:28;21.40;50.30
65826;DHT22;52586;-43.152;172.732;2022-10-16T04:33:59;21.40;50.30
65826;DHT22;52586;-43.152;172.732;2022-10-16T04:36:29;21.40;50.40
65826;DHT22;52586;-43.152;172.732;2022-10-16T04:39:00;21.40;50.50
65826;DHT22;52586;-43.152;172.732;2022-10-16T04:41:31;21.40;50.50
65826;DHT22;52586;-43.152;172.732;2022-10-16T04:44:02;21.40;50.40
65826;DHT22;52586;-43.152;172.732;2022-10-16T04:46:34;21.40;50.40
65826;DHT22;52586;-43.152;172.732;2022-10-16T04:49:05;21.40;50.30
65826;DHT22;52586;-43.152;172.732;2022-10-16T04:51:36;21.40;50.20
65826;DHT22;52586;-43.152;172.732;2022-10-16T04:54:06;21.30;50.20
65826;DHT22;52586;-43.152;172.732;2022-10-16T04:56:37;21.30;50.20
65826;DHT22;52586;-43.152;172.732;2022-10-16T04:59:14;21.30;50.20
65826;DHT22;52586;-43.152;172.732;2022-10-16T05:01:47;21.30;50.20
65826;DHT22;52586;-43.152;172.732;2022-10-16T05:04:18;21.30;50.30
65826;DHT22;52586;-43.152;172.732;2022-10-16T05:06:49;21.30;50.30
65826;DHT22;52586;-43.152;172.732;2022-10-16T05:09:19;21.30;50.30
65826;DHT22;52586;-43.152;172.732;2022-10-16T05:11:50;21.30;50.30
65826;DHT22;52586;-43.152;172.732;2022-10-16T05:14:21;21.30;50.30
65826;DHT22;52586;-43.152;172.732;2022-10-16T05:16:53;21.30;50.30
65826;DHT22;52586;-43.152;172.732;2022-10-16T05:19:24;21.30;50.30
65826;DHT22;52586;-43.152;172.732;2022-10-16T05:21:55;21.30;50.30
65826;DHT22;52586;-43.152;172.732;2022-10-16T05:24:26;21.30;50.20
65826;DHT22;52586;-43.152;172.732;2022-10-16T05:26:57;21.30;50.30
65826;DHT22;52586;-43.152;172.732;2022-10-16T05:29:27;21.20;50.30
65826;DHT22;52586;-43.152;172.732;2022-10-16T05:32:00;21.20;50.30
65826;DHT22;52586;-43.152;172.732;2022-10-16T05:34:31;21.20;50.30
65826;DHT22;52586;-43.152;172.732;2022-10-16T05:37:01;21.20;50.30
65826;DHT22;52586;-43.152;172.732;2022-10-16T05:39:32;21.20;50.90
65826;DHT22;52586;-43.152;172.732;2022-10-16T05:42:04;21.20;50.40
65826;DHT22;52586;-43.152;172.732;2022-10-16T05:44:35;21.20;50.40
65826;DHT22;52586;-43.152;172.732;2022-10-16T05:47:08;21.20;50.40
65826;DHT22;52586;-43.152;172.732;2022-10-16T05:49:38;21.10;51.00
65826;DHT22;52586;-43.152;172.732;2022-10-16T05:52:09;21.10;50.40
65826;DHT22;52586;-43.152;172.732;2022-10-16T05:54:40;21.10;50.40
65826;DHT22;52586;-43.152;172.732;2022-10-16T05:57:11;21.10;50.40
65826;DHT22;52586;-43.152;172.732;2022-10-16T05:59:41;21.10;50.40
65826;DHT22;52586;-43.152;172.732;2022-10-16T06:02:15;21.10;50.40
65826;DHT22;52586;-43.152;172.732;2022-10-16T06:04:46;21.10;50.40
65826;DHT22;52586;-43.152;172.732;2022-10-16T06:07:17;21.10;50.40
65826;DHT22;52586;-43.152;172.732;2022-10-16T06:09:49;21.00;50.40
65826;DHT22;52586;-43.152;172.732;2022-10-16T06:12:20;21.00;50.50
65826;DHT22;52586;-43.152;172.732;2022-10-16T06:14:51;21.00;50.40
65826;DHT22;52586;-43.152;172.732;2022-10-16T06:17:24;21.00;50.40
65826;DHT22;52586;-43.152;172.732;2022-10-16T06:19:54;21.00;50.50
65826;DHT22;52586;-43.152;172.732;2022-10-16T06:22:25;21.00;50.40
65826;DHT22;52586;-43.152;172.732;2022-10-16T06:24:56;21.00;50.50
65826;DHT22;52586;-43.152;172.732;2022-10-16T06:27:26;21.00;50.40
65826;DHT22;52586;-43.152;172.732;2022-10-16T06:29:57;20.90;50.40
65826;DHT22;52586;-43.152;172.732;2022-10-16T06:32:30;20.90;50.40
65826;DHT22;52586;-43.152;172.732;2022-10-16T06:35:01;20.90;50.40
65826;DHT22;52586;-43.152;172.732;2022-10-16T06:37:32;20.90;50.40
65826;DHT22;52586;-43.152;172.732;2022-10-16T06:40:03;20.90;50.50
65826;DHT22;52586;-43.152;172.732;2022-10-16T06:42:34;20.80;50.40
65826;DHT22;52586;-43.152;172.732;2022-10-16T06:45:05;20.80;50.40
65826;DHT22;52586;-43.152;172.732;2022-10-16T06:47:37;20.80;50.40
65826;DHT22;52586;-43.152;172.732;2022-10-16T06:50:08;20.80;50.50
65826;DHT22;52586;-43.152;172.732;2022-10-16T06:52:39;20.80;50.40
65826;DHT22;52586;-43.152;172.732;2022-10-16T06:55:10;20.80;50.40
65826;DHT22;52586;-43.152;172.732;2022-10-16T06:57:41;20.80;50.40
65826;DHT22;52586;-43.152;172.732;2022-10-16T07:00:12;20.70;50.40
65826;DHT22;52586;-43.152;172.732;2022-10-16T07:02:44;20.70;50.40
65826;DHT22;52586;-43.152;172.732;2022-10-16T07:05:15;20.70;50.40
65826;DHT22;52586;-43.152;172.732;2022-10-16T07:07:46;20.70;50.40
65826;DHT22;52586;-43.152;172.732;2022-10-16T07:10:16;20.70;50.50
65826;DHT22;52586;-43.152;172.732;2022-10-16T07:12:47;20.70;50.40
65826;DHT22;52586;-43.152;172.732;2022-10-16T07:15:18;20.60;50.40
65826;DHT22;52586;-43.152;172.732;2022-10-16T07:17:50;20.60;50.50
65826;DHT22;52586;-43.152;172.732;2022-10-16T07:20:21;20.60;50.50
65826;DHT22;52586;-43.152;172.732;2022-10-16T07:22:52;20.60;50.40
65826;DHT22;52586;-43.152;172.732;2022-10-16T07:25:23;20.60;50.50
65826;DHT22;52586;-43.152;172.732;2022-10-16T07:27:54;20.60;50.50
65826;DHT22;52586;-43.152;172.732;2022-10-16T07:30:24;20.50;51.00
65826;DHT22;52586;-43.152;172.732;2022-10-16T07:32:57;20.50;50.40
65826;DHT22;52586;-43.152;172.732;2022-10-16T07:35:28;20.50;50.40
65826;DHT22;52586;-43.152;172.732;2022-10-16T07:37:58;20.50;50.40
65826;DHT22;52586;-43.152;172.732;2022-10-16T07:40:29;20.50;50.50
65826;DHT22;52586;-43.152;172.732;2022-10-16T07:43:00;20.40;50.40
65826;DHT22;52586;-43.152;172.732;2022-10-16T07:45:33;20.40;50.40
65826;DHT22;52586;-43.152;172.732;2022-10-16T07:48:05;20.40;50.50
65826;DHT22;52586;-43.152;172.732;2022-10-16T07:50:36;20.40;51.10
65826;DHT22;52586;-43.152;172.732;2022-10-16T07:53:07;20.30;50.40
65826;DHT22;52586;-43.152;172.732;2022-10-16T07:55:38;20.30;50.50
65826;DHT22;52586;-43.152;172.732;2022-10-16T07:58:08;20.30;50.40
65826;DHT22;52586;-43.152;172.732;2022-10-16T08:00:39;20.30;50.40
65826;DHT22;52586;-43.152;172.732;2022-10-16T08:03:12;20.30;50.50
65826;DHT22;52586;-43.152;172.732;2022-10-16T08:05:42;20.30;50.40
65826;DHT22;52586;-43.152;172.732;2022-10-16T08:08:15;20.20;50.40
65826;DHT22;52586;-43.152;172.732;2022-10-16T08:10:46;20.20;50.40
65826;DHT22;52586;-43.152;172.732;2022-10-16T08:13:16;20.20;50.50
65826;DHT22;52586;-43.152;172.732;2022-10-16T08:15:47;20.20;50.50
65826;DHT22;52586;-43.152;172.732;2022-10-16T08:18:20;20.10;50.40
65826;DHT22;52586;-43.152;172.732;2022-10-16T08:20:57;20.10;50.50
65826;DHT22;52586;-43.152;172.732;2022-10-16T08:23:28;20.10;50.50
65826;DHT22;52586;-43.152;172.732;2022-10-16T08:26:04;20.10;50.50
65826;DHT22;52586;-43.152;172.732;2022-10-16T08:28:35;20.10;50.60
65826;DHT22;52586;-43.152;172.732;2022-10-16T08:31:10;20.00;51.60
65826;DHT22;52586;-43.152;172.732;2022-10-16T08:33:44;20.00;52.50
65826;DHT22;52586;-43.152;172.732;2022-10-16T08:36:16;20.10;52.30
65826;DHT22;52586;-43.152;172.732;2022-10-16T08:38:49;20.00;52.30
65826;DHT22;52586;-43.152;172.732;2022-10-16T08:41:49;20.00;52.20
65826;DHT22;52586;-43.152;172.732;2022-10-16T08:47:24;20.00;52.00
65826;DHT22;52586;-43.152;172.732;2022-10-16T08:50:02;19.90;51.80
65826;DHT22;52586;-43.152;172.732;2022-10-16T08:52:38;19.90;51.80
65826;DHT22;52586;-43.152;172.732;2022-10-16T08:55:23;19.90;51.80
65826;DHT22;52586;-43.152;172.732;2022-10-16T08:57:57;19.80;51.80
65826;DHT22;52586;-43.152;172.732;2022-10-16T09:00:29;19.80;51.80
65826;DHT22;52586;-43.152;172.732;2022-10-16T09:03:06;19.80;51.80
65826;DHT22;52586;-43.152;172.732;2022-10-16T09:06:04;19.80;51.80
65826;DHT22;52586;-43.152;172.732;2022-10-16T09:08:46;19.70;51.70
65826;DHT22;52586;-43.152;172.732;2022-10-16T09:11:25;19.70;51.70
65826;DHT22;52586;-43.152;172.732;2022-10-16T09:14:07;19.70;51.60
65826;DHT22;52586;-43.152;172.732;2022-10-16T09:16:46;19.70;51.60
65826;DHT22;52586;-43.152;172.732;2022-10-16T09:19:24;19.60;51.60
65826;DHT22;52586;-43.152;172.732;2022-10-16T09:22:01;19.60;51.60
65826;DHT22;52586;-43.152;172.732;2022-10-16T09:24:33;19.50;51.60
65826;DHT22;52586;-43.152;172.732;2022-10-16T09:27:04;19.50;51.60
65826;DHT22;52586;-43.152;172.732;2022-10-16T09:29:35;19.50;51.60
65826;DHT22;52586;-43.152;172.732;2022-10-16T09:32:12;19.40;51.50
65826;DHT22;52586;-43.152;172.732;2022-10-16T09:34:46;19.40;51.60
65826;DHT22;52586;-43.152;172.732;2022-10-16T09:37:21;19.40;51.60
65826;DHT22;52586;-43.152;172.732;2022-10-16T09:39:53;19.40;51.60
65826;DHT22;52586;-43.152;172.732;2022-10-16T09:42:26;19.30;51.60
65826;DHT22;52586;-43.152;172.732;2022-10-16T09:44:58;19.30;51.50
65826;DHT22;52586;-43.152;172.732;2022-10-16T09:47:30;19.30;51.50
65826;DHT22;52586;-43.152;172.732;2022-10-16T09:50:04;19.30;51.60
65826;DHT22;52586;-43.152;172.732;2022-10-16T09:52:37;19.30;51.50
65826;DHT22;52586;-43.152;172.732;2022-10-16T09:55:15;19.20;51.50
65826;DHT22;52586;-43.152;172.732;2022-10-16T09:57:52;19.20;51.50
65826;DHT22;52586;-43.152;172.732;2022-10-16T10:00:24;19.10;51.50
65826;DHT22;52586;-43.152;172.732;2022-10-16T10:02:55;19.10;51.50
65826;DHT22;52586;-43.152;172.732;2022-10-16T10:05:28;19.10;51.50
65826;DHT22;52586;-43.152;172.732;2022-10-16T10:08:01;19.10;51.60
65826;DHT22;52586;-43.152;172.732;2022-10-16T10:10:36;19.00;51.50
65826;DHT22;52586;-43.152;172.732;2022-10-16T10:13:18;19.00;51.50
65826;DHT22;52586;-43.152;172.732;2022-10-16T10:15:50;19.00;51.50
65826;DHT22;52586;-43.152;172.732;2022-10-16T10:18:21;19.00;51.50
65826;DHT22;52586;-43.152;172.732;2022-10-16T10:21:00;19.00;51.40
65826;DHT22;52586;-43.152;172.732;2022-10-16T10:23:35;19.00;51.50
65826;DHT22;52586;-43.152;172.732;2022-10-16T10:26:11;18.90;51.50
65826;DHT22;52586;-43.152;172.732;2022-10-16T10:28:51;18.90;51.50
65826;DHT22;52586;-43.152;172.732;2022-10-16T10:31:29;18.90;51.50
65826;DHT22;52586;-43.152;172.732;2022-10-16T10:34:09;18.80;51.50
65826;DHT22;52586;-43.152;172.732;2022-10-16T10:36:47;18.80;51.50
65826;DHT22;52586;-43.152;172.732;2022-10-16T10:39:27;18.80;51.50
65826;DHT22;52586;-43.152;172.732;2022-10-16T10:42:13;18.70;51.50
65826;DHT22;52586;-43.152;172.732;2022-10-16T10:45:08;18.70;51.50
65826;DHT22;52586;-43.152;172.732;2022-10-16T10:47:47;18.70;51.50
65826;DHT22;52586;-43.152;172.732;2022-10-16T10:50:25;18.70;51.50
65826;DHT22;52586;-43.152;172.732;2022-10-16T10:53:06;18.70;51.50
65826;DHT22;52586;-43.152;172.732;2022-10-16T10:55:47;18.60;51.40
65826;DHT22;52586;-43.152;172.732;2022-10-16T10:58:43;18.60;51.40
65826;DHT22;52586;-43.152;172.732;2022-10-16T11:01:24;18.60;51.50
65826;DHT22;52586;-43.152;172.732;2022-10-16T11:04:19;18.60;51.50
65826;DHT22;52586;-43.152;172.732;2022-10-16T11:06:57;18.50;51.50
65826;DHT22;52586;-43.152;172.732;2022-10-16T11:09:32;18.50;51.50
65826;DHT22;52586;-43.152;172.732;2022-10-16T11:12:09;18.40;51.50
65826;DHT22;52586;-43.152;172.732;2022-10-16T11:14:45;18.40;51.50
65826;DHT22;52586;-43.152;172.732;2022-10-16T11:17:22;18.40;51.50
65826;DHT22;52586;-43.152;172.732;2022-10-16T11:19:55;18.40;51.50
65826;DHT22;52586;-43.152;172.732;2022-10-16T11:22:32;18.40;51.50
65826;DHT22;52586;-43.152;172.732;2022-10-16T11:25:11;18.40;51.50
65826;DHT22;52586;-43.152;172.732;2022-10-16T11:27:48;18.30;51.40
65826;DHT22;52586;-43.152;172.732;2022-10-16T11:30:23;18.30;51.40
65826;DHT22;52586;-43.152;172.732;2022-10-16T11:33:04;18.30;51.40
65826;DHT22;52586;-43.152;172.732;2022-10-16T11:35:41;18.30;51.40
65826;DHT22;52586;-43.152;172.732;2022-10-16T11:38:19;18.30;51.50
65826;DHT22;52586;-43.152;172.732;2022-10-16T11:40:54;18.20;51.40
65826;DHT22;52586;-43.152;172.732;2022-10-16T11:43:32;18.20;51.50
65826;DHT22;52586;-43.152;172.732;2022-10-16T11:46:08;18.10;51.50
65826;DHT22;52586;-43.152;172.732;2022-10-16T11:48:45;18.10;51.50
65826;DHT22;52586;-43.152;172.732;2022-10-16T11:51:20;18.10;52.00
65826;DHT22;52586;-43.152;172.732;2022-10-16T11:53:59;18.10;51.40
65826;DHT22;52586;-43.152;172.732;2022-10-16T11:56:33;18.10;51.40
65826;DHT22;52586;-43.152;172.732;2022-10-16T11:59:15;18.10;51.40
65826;DHT22;52586;-43.152;172.732;2022-10-16T12:01:49;18.10;51.40
65826;DHT22;52586;-43.152;172.732;2022-10-16T12:04:25;18.10;51.40
65826;DHT22;52586;-43.152;172.732;2022-10-16T12:07:04;18.00;51.40
65826;DHT22;52586;-43.152;172.732;2022-10-16T12:09:38;18.00;51.40
65826;DHT22;52586;-43.152;172.732;2022-10-16T12:12:24;18.00;51.40
65826;DHT22;52586;-43.152;172.732;2022-10-16T12:15:18;17.90;51.40
65826;DHT22;52586;-43.152;172.732;2022-10-16T12:17:49;17.90;51.40
65826;DHT22;52586;-43.152;172.732;2022-10-16T12:20:26;17.90;51.40
65826;DHT22;52586;-43.152;172.732;2022-10-16T12:23:00;17.80;51.40
65826;DHT22;52586;-43.152;172.732;2022-10-16T12:25:32;17.90;51.50
65826;DHT22;52586;-43.152;172.732;2022-10-16T12:28:05;17.80;51.40
65826;DHT22;52586;-43.152;172.732;2022-10-16T12:30:38;17.80;51.40
65826;DHT22;52586;-43.152;172.732;2022-10-16T12:33:21;17.80;51.50
65826;DHT22;52586;-43.152;172.732;2022-10-16T12:35:53;17.80;51.40
65826;DHT22;52586;-43.152;172.732;2022-10-16T12:38:27;17.80;51.40
65826;DHT22;52586;-43.152;172.732;2022-10-16T12:41:01;17.70;51.40
65826;DHT22;52586;-43.152;172.732;2022-10-16T12:43:40;17.70;51.40
65826;DHT22;52586;-43.152;172.732;2022-10-16T12:46:36;17.70;51.40
65826;DHT22;52586;-43.152;172.732;2022-10-16T12:52:02;17.60;51.40
65826;DHT22;52586;-43.152;172.732;2022-10-16T12:54:36;17.60;51.40
65826;DHT22;52586;-43.152;172.732;2022-10-16T12:57:27;17.60;51.40
65826;DHT22;52586;-43.152;172.732;2022-10-16T13:00:09;17.60;51.50
65826;DHT22;52586;-43.152;172.732;2022-10-16T13:02:55;17.60;51.40
65826;DHT22;52586;-43.152;172.732;2022-10-16T13:05:40;17.60;51.50
65826;DHT22;52586;-43.152;172.732;2022-10-16T13:08:35;17.60;51.50
65826;DHT22;52586;-43.152;172.732;2022-10-16T13:11:17;17.50;51.40
65826;DHT22;52586;-43.152;172.732;2022-10-16T13:14:04;17.50;51.40
65826;DHT22;52586;-43.152;172.732;2022-10-16T13:16:49;17.50;51.40
65826;DHT22;52586;-43.152;172.732;2022-10-16T13:19:28;17.50;51.50
65826;DHT22;52586;-43.152;172.732;2022-10-16T13:22:05;17.40;51.50
65826;DHT22;52586;-43.152;172.732;2022-10-16T13:24:48;17.40;51.50
65826;DHT22;52586;-43.152;172.732;2022-10-16T13:27:27;17.40;51.50
65826;DHT22;52586;-43.152;172.732;2022-10-16T13:30:08;17.40;51.50
65826;DHT22;52586;-43.152;172.732;2022-10-16T13:32:43;17.40;51.50
65826;DHT22;52586;-43.152;172.732;2022-10-16T13:35:23;17.40;51.60
65826;DHT22;52586;-43.152;172.732;2022-10-16T13:38:06;17.40;51.60
65826;DHT22;52586;-43.152;172.732;2022-10-16T13:40:50;17.30;51.50
65826;DHT22;52586;-43.152;172.732;2022-10-16T13:43:26;17.30;51.50
65826;DHT22;52586;-43.152;172.732;2022-10-16T13:45:59;17.30;51.50
65826;DHT22;52586;-43.152;172.732;2022-10-16T13:48:32;17.30;51.50
65826;DHT22;52586;-43.152;172.732;2022-10-16T13:51:10;17.30;51.50
65826;DHT22;52586;-43.152;172.732;2022-10-16T13:53:42;17.30;51.50
65826;DHT22;52586;-43.152;172.732;2022-10-16T13:56:15;17.30;51.50
65826;DHT22;52586;-43.152;172.732;2022-10-16T13:58:46;17.20;51.50
65826;DHT22;52586;-43.152;172.732;2022-10-16T14:01:29;17.20;51.50
65826;DHT22;52586;-43.152;172.732;2022-10-16T14:04:06;17.20;51.60
65826;DHT22;52586;-43.152;172.732;2022-10-16T14:06:42;17.20;51.50
65826;DHT22;52586;-43.152;172.732;2022-10-16T14:09:22;17.20;51.50
65826;DHT22;52586;-43.152;172.732;2022-10-16T14:11:56;17.20;51.60
65826;DHT22;52586;-43.152;172.732;2022-10-16T14:14:32;17.20;51.60
65826;DHT22;52586;-43.152;172.732;2022-10-16T14:17:04;17.20;51.60
65826;DHT22;52586;-43.152;172.732;2022-10-16T14:19:35;17.10;51.50
65826;DHT22;52586;-43.152;172.732;2022-10-16T14:22:23;17.10;51.50
65826;DHT22;52586;-43.152;172.732;2022-10-16T14:24:54;17.10;51.50
65826;DHT22;52586;-43.152;172.732;2022-10-16T14:27:29;17.10;51.60
65826;DHT22;52586;-43.152;172.732;2022-10-16T14:30:18;17.10;51.50
65826;DHT22;52586;-43.152;172.732;2022-10-16T14:32:56;17.00;51.50
65826;DHT22;52586;-43.152;172.732;2022-10-16T14:35:29;17.00;51.50
65826;DHT22;52586;-43.152;172.732;2022-10-16T14:38:04;17.00;51.50
65826;DHT22;52586;-43.152;172.732;2022-10-16T14:40:36;17.00;51.60
65826;DHT22;52586;-43.152;172.732;2022-10-16T14:43:14;17.00;51.60
65826;DHT22;52586;-43.152;172.732;2022-10-16T14:45:53;17.00;51.50
65826;DHT22;52586;-43.152;172.732;2022-10-16T14:48:25;17.00;51.50
65826;DHT22;52586;-43.152;172.732;2022-10-16T14:50:56;16.90;51.50
65826;DHT22;52586;-43.152;172.732;2022-10-16T14:53:28;16.90;51.50
65826;DHT22;52586;-43.152;172.732;2022-10-16T14:56:05;16.90;51.50
65826;DHT22;52586;-43.152;172.732;2022-10-16T14:58:36;16.90;51.50
65826;DHT22;52586;-43.152;172.732;2022-10-16T15:01:08;16.90;51.40
65826;DHT22;52586;-43.152;172.732;2022-10-16T15:03:40;16.90;51.50
65826;DHT22;52586;-43.152;172.732;2022-10-16T15:06:11;16.90;51.50
65826;DHT22;52586;-43.152;172.732;2022-10-16T15:08:44;16.80;51.50
65826;DHT22;52586;-43.152;172.732;2022-10-16T15:11:16;16.80;51.40
65826;DHT22;52586;-43.152;172.732;2022-10-16T15:13:48;16.80;51.50
65826;DHT22;52586;-43.152;172.732;2022-10-16T15:16:18;16.80;51.40
65826;DHT22;52586;-43.152;172.732;2022-10-16T15:18:49;16.80;51.50
65826;DHT22;52586;-43.152;172.732;2022-10-16T15:21:23;16.80;51.50
65826;DHT22;52586;-43.152;172.732;2022-10-16T15:23:57;16.70;51.50
65826;DHT22;52586;-43.152;172.732;2022-10-16T15:26:28;16.80;51.50
65826;DHT22;52586;-43.152;172.732;2022-10-16T15:28:59;16.70;51.40
65826;DHT22;52586;-43.152;172.732;2022-10-16T15:31:30;16.70;51.40
65826;DHT22;52586;-43.152;172.732;2022-10-16T15:34:01;16.70;51.40
65826;DHT22;52586;-43.152;172.732;2022-10-16T15:36:32;16.70;51.40